Time;durP1;ratioP1;P1;durP2;ratioP2;P2;SDS_P1;SDS_P2;PMS_P1;PMS_P2;Temp;Humidity;BMP_temperature;BMP_pressure;BME280_temperature;BME280_humidity;BME280_pressure;Samples;Min_cycle;Max_cycle;Signal;HPM_P1;HPM_P2
2022/10/15 00:00:50;;;;;;;16.80;11.93;;;13.00;99.90;;;;;;5033245;28;20174;-63
2022/10/15 00:03:16;;;;;;;17.92;13.43;;;13.00;99.90;;;;;;5033812;28;20596;-63
2022/10/15 00:05:42;;;;;;;14.70;12.05;;;12.90;99.90;;;;;;5031940;28;20553;-63
2022/10/15 00:08:09;;;;;;;15.82;12.63;;;13.00;99.90;;;;;;5033259;28;20171;-63
2022/10/15 00:10:36;;;;;;;14.07;11.13;;;13.00;99.90;;;;;;5033299;28;20178;-63
2022/10/15 00:13:02;;;;;;;15.23;12.52;;;13.00;99.90;;;;;;5032961;28;20702;-63
2022/10/15 00:15:28;;;;;;;17.08;12.95;;;13.00;99.90;;;;;;5035922;28;20679;-63
2022/10/15 00:17:54;;;;;;;19.42;13.20;;;13.00;99.90;;;;;;5037255;28;20211;-63
2022/10/15 00:20:21;;;;;;;17.58;13.27;;;13.00;99.90;;;;;;5035930;28;20174;-63
2022/10/15 00:22:47;;;;;;;15.63;12.25;;;13.00;99.90;;;;;;5037282;28;20187;-63
2022/10/15 00:25:12;;;;;;;22.85;14.38;;;13.00;99.90;;;;;;5035882;28;20186;-63
2022/10/15 00:27:39;;;;;;;19.40;13.63;;;13.00;99.90;;;;;;5037182;28;20210;-63
2022/10/15 00:30:05;;;;;;;18.95;13.27;;;12.90;99.90;;;;;;5035618;28;20549;-63
2022/10/15 00:32:32;;;;;;;18.35;14.02;;;12.90;99.90;;;;;;5037021;28;20272;-63
2022/10/15 00:34:58;;;;;;;17.63;12.20;;;12.90;99.90;;;;;;5037184;28;20742;-63
2022/10/15 00:37:23;;;;;;;14.05;11.38;;;12.90;99.90;;;;;;5036932;28;20179;-63
2022/10/15 00:39:49;;;;;;;21.98;12.25;;;12.80;99.90;;;;;;5037140;28;20172;-63
2022/10/15 00:42:15;;;;;;;16.63;12.32;;;12.90;99.90;;;;;;5036813;28;20668;-63
2022/10/15 00:44:51;;;;;;;15.18;11.35;;;12.80;99.90;;;;;;5036656;28;20190;-63
2022/10/15 00:47:19;;;;;;;18.17;13.18;;;12.80;99.90;;;;;;5036883;28;20190;-63
2022/10/15 00:49:56;;;;;;;19.00;12.75;;;12.80;99.90;;;;;;5036644;28;20740;-63
2022/10/15 00:52:44;;;;;;;16.15;12.88;;;12.80;99.90;;;;;;5036519;28;20194;-63
2022/10/15 00:55:42;;;;;;;18.02;12.77;;;12.80;99.90;;;;;;5036477;28;20191;-63
2022/10/15 00:58:12;;;;;;;16.45;12.27;;;12.70;99.90;;;;;;5024592;28;20199;-63
2022/10/15 01:00:38;;;;;;;16.98;12.30;;;12.70;99.90;;;;;;5037070;28;20163;-63
2022/10/15 01:03:04;;;;;;;19.25;13.05;;;12.70;99.90;;;;;;5036596;28;20195;-63
2022/10/15 01:05:30;;;;;;;15.70;11.60;;;12.60;99.90;;;;;;5036357;28;20171;-63
2022/10/15 01:07:56;;;;;;;17.67;11.38;;;12.60;99.90;;;;;;5036339;28;20203;-63
2022/10/15 01:10:31;;;;;;;17.48;12.70;;;12.60;99.90;;;;;;5036861;28;20195;-63
2022/10/15 01:13:13;;;;;;;17.92;12.77;;;12.60;99.90;;;;;;5036215;28;20205;-63
2022/10/15 01:15:48;;;;;;;20.30;12.82;;;12.60;99.90;;;;;;5034914;28;20217;-63
2022/10/15 01:18:27;;;;;;;16.63;12.23;;;12.50;99.90;;;;;;5036223;28;20190;-63
2022/10/15 01:21:11;;;;;;;17.58;13.80;;;12.50;99.90;;;;;;5036383;28;20205;-63
2022/10/15 01:24:15;;;;;;;18.80;14.07;;;12.50;99.90;;;;;;5035955;28;20663;-63
2022/10/15 01:26:47;;;;;;;18.75;14.05;;;12.50;99.90;;;;;;5012933;28;20719;-63
2022/10/15 01:29:37;;;;;;;18.85;14.23;;;12.50;99.90;;;;;;5045027;28;20195;-63
2022/10/15 01:32:03;;;;;;;16.52;12.48;;;12.40;99.90;;;;;;5035870;28;20195;-63
2022/10/15 01:35:05;;;;;;;15.98;12.20;;;12.40;99.90;;;;;;5034702;28;20253;-66
2022/10/15 01:37:51;;;;;;;16.15;12.82;;;12.40;99.90;;;;;;5036098;28;20174;-66
2022/10/15 01:40:25;;;;;;;18.08;13.25;;;12.40;99.90;;;;;;5035871;28;20163;-66
2022/10/15 01:42:56;;;;;;;17.10;13.20;;;12.40;99.90;;;;;;5035683;28;20191;-66
2022/10/15 01:45:39;;;;;;;17.63;13.32;;;12.40;99.90;;;;;;5034458;28;20167;-66
2022/10/15 01:48:09;;;;;;;17.33;12.55;;;12.30;99.90;;;;;;5035504;28;20183;-66
2022/10/15 01:50:39;;;;;;;16.08;11.20;;;12.30;99.90;;;;;;5035909;28;20640;-66
2022/10/15 01:53:06;;;;;;;15.85;12.30;;;12.30;99.90;;;;;;5034364;28;20199;-66
2022/10/15 01:55:34;;;;;;;15.95;11.80;;;12.30;99.90;;;;;;5035577;28;20195;-67
2022/10/15 01:58:01;;;;;;;16.77;11.75;;;12.30;99.90;;;;;;5035695;28;20199;-67
2022/10/15 02:00:27;;;;;;;17.90;11.60;;;12.20;99.90;;;;;;5036044;28;20221;-67
2022/10/15 02:02:59;;;;;;;17.40;12.05;;;12.20;99.90;;;;;;5035534;28;20187;-66
2022/10/15 02:05:31;;;;;;;15.20;11.65;;;12.20;99.90;;;;;;5035860;28;20630;-66
2022/10/15 02:08:06;;;;;;;17.52;13.02;;;12.20;99.90;;;;;;5035808;28;20213;-66
2022/10/15 02:10:59;;;;;;;15.68;11.65;;;12.20;99.90;;;;;;5035477;28;20163;-66
2022/10/15 02:13:42;;;;;;;18.23;13.27;;;12.20;99.90;;;;;;5027014;28;20214;-66
2022/10/15 02:16:52;;;;;;;16.98;12.13;;;12.20;99.90;;;;;;5035735;28;20164;-66
2022/10/15 02:19:28;;;;;;;16.83;12.38;;;12.30;99.90;;;;;;5023150;28;20183;-66
2022/10/15 02:22:10;;;;;;;20.02;13.05;;;12.30;99.90;;;;;;5035284;28;20182;-66
2022/10/15 02:24:44;;;;;;;17.23;12.63;;;12.40;99.90;;;;;;5035558;28;20519;-66
2022/10/15 02:27:12;;;;;;;18.80;13.02;;;12.40;99.90;;;;;;5034853;28;20171;-66
2022/10/15 02:29:41;;;;;;;18.40;13.23;;;12.40;99.90;;;;;;5034906;28;20164;-66
2022/10/15 02:32:08;;;;;;;19.17;13.55;;;12.40;99.90;;;;;;5034791;28;20237;-66
2022/10/15 02:34:35;;;;;;;16.50;11.90;;;12.40;99.90;;;;;;5034783;28;20206;-66
2022/10/15 02:37:03;;;;;;;19.63;14.10;;;12.40;99.90;;;;;;5033263;28;20183;-66
2022/10/15 02:39:29;;;;;;;18.90;13.30;;;12.40;99.90;;;;;;5034928;28;20171;-66
2022/10/15 02:41:56;;;;;;;23.73;14.40;;;12.40;99.90;;;;;;5034762;28;20179;-66
2022/10/15 02:44:22;;;;;;;24.20;14.10;;;12.40;99.90;;;;;;5034814;28;20159;-66
2022/10/15 02:46:48;;;;;;;19.17;13.88;;;12.30;99.90;;;;;;5034637;28;20253;-66
2022/10/15 02:49:14;;;;;;;19.63;13.95;;;12.30;99.90;;;;;;5034529;28;20208;-66
2022/10/15 02:51:39;;;;;;;18.30;13.65;;;12.30;99.90;;;;;;5034493;28;20182;-66
2022/10/15 02:54:06;;;;;;;18.35;12.73;;;12.30;99.90;;;;;;5033135;28;20206;-66
2022/10/15 02:56:33;;;;;;;19.48;13.30;;;12.30;99.90;;;;;;5034451;28;20151;-66
2022/10/15 02:58:58;;;;;;;18.52;13.52;;;12.20;99.90;;;;;;5034575;28;20679;-67
2022/10/15 03:01:24;;;;;;;19.10;13.63;;;12.20;99.90;;;;;;5033272;28;20270;-66
2022/10/15 03:03:50;;;;;;;18.60;13.55;;;12.20;99.90;;;;;;5032872;28;20199;-66
2022/10/15 03:06:15;;;;;;;19.17;14.15;;;12.10;99.90;;;;;;5034472;28;20183;-66
2022/10/15 03:08:42;;;;;;;18.83;13.55;;;12.10;99.90;;;;;;5033028;28;20179;-66
2022/10/15 03:11:07;;;;;;;18.60;13.02;;;12.00;99.90;;;;;;5034142;28;20225;-66
2022/10/15 03:13:38;;;;;;;17.88;12.88;;;11.90;99.90;;;;;;5033899;28;20191;-66
2022/10/15 03:16:05;;;;;;;17.67;12.57;;;11.90;99.90;;;;;;5034230;28;20176;-66
2022/10/15 03:18:31;;;;;;;19.00;12.35;;;11.90;99.90;;;;;;5034076;28;20183;-66
2022/10/15 03:20:57;;;;;;;15.50;11.50;;;11.90;99.90;;;;;;5034073;28;20220;-66
2022/10/15 03:23:23;;;;;;;20.25;13.55;;;11.90;99.90;;;;;;5032655;28;20282;-66
2022/10/15 03:25:49;;;;;;;19.38;12.77;;;11.90;99.90;;;;;;5033811;28;20778;-66
2022/10/15 03:28:15;;;;;;;21.40;13.82;;;11.90;99.90;;;;;;5032574;28;20205;-66
2022/10/15 03:30:44;;;;;;;15.60;12.07;;;11.90;99.90;;;;;;5033831;28;20678;-66
2022/10/15 03:33:10;;;;;;;17.92;12.15;;;11.90;99.90;;;;;;5033757;28;20274;-67
2022/10/15 03:35:36;;;;;;;17.88;12.30;;;11.80;99.90;;;;;;5033803;28;20337;-66
2022/10/15 03:38:02;;;;;;;20.48;12.25;;;11.80;99.90;;;;;;5033703;28;20167;-66
2022/10/15 03:40:27;;;;;;;18.05;13.50;;;11.80;99.90;;;;;;5032406;28;20179;-66
2022/10/15 03:42:55;;;;;;;15.60;12.32;;;11.80;99.90;;;;;;5032313;28;20568;-66
2022/10/15 03:45:22;;;;;;;17.77;12.70;;;11.80;99.90;;;;;;5032220;28;20202;-66
2022/10/15 03:47:47;;;;;;;16.23;11.57;;;11.80;99.90;;;;;;5033684;28;20199;-66
2022/10/15 03:50:13;;;;;;;16.45;13.20;;;11.70;99.90;;;;;;5031863;28;20171;-66
2022/10/15 03:52:39;;;;;;;19.52;13.90;;;11.70;99.90;;;;;;5034395;28;20195;-66
2022/10/15 03:55:07;;;;;;;19.67;14.63;;;11.70;99.90;;;;;;5033903;28;20213;-66
2022/10/15 03:57:33;;;;;;;21.58;15.27;;;11.70;99.90;;;;;;5033545;28;20171;-66
2022/10/15 03:59:58;;;;;;;23.98;15.23;;;11.60;99.90;;;;;;5033438;28;20171;-66
2022/10/15 04:02:24;;;;;;;22.95;16.23;;;11.60;99.90;;;;;;5033350;28;20205;-66
2022/10/15 04:04:54;;;;;;;23.35;15.02;;;11.50;99.90;;;;;;5033663;28;20184;-66
2022/10/15 04:07:20;;;;;;;19.38;13.85;;;11.50;99.90;;;;;;5033612;28;20183;-66
2022/10/15 04:09:46;;;;;;;19.90;13.98;;;11.50;99.90;;;;;;5033890;28;20205;-66
2022/10/15 04:12:12;;;;;;;19.52;14.45;;;11.50;99.90;;;;;;5033092;28;20202;-66
2022/10/15 04:14:39;;;;;;;17.77;13.52;;;11.40;99.90;;;;;;5032951;28;20576;-66
2022/10/15 04:17:05;;;;;;;18.63;12.98;;;11.40;99.90;;;;;;5033344;28;20175;-66
2022/10/15 04:19:31;;;;;;;21.00;13.50;;;11.30;99.90;;;;;;5033176;28;20171;-66
2022/10/15 04:21:56;;;;;;;18.10;13.73;;;11.20;99.90;;;;;;5033078;28;20258;-66
2022/10/15 04:24:22;;;;;;;19.33;13.57;;;11.20;99.90;;;;;;5033192;28;20179;-66
2022/10/15 04:26:48;;;;;;;18.38;12.52;;;11.20;99.90;;;;;;5033634;28;20183;-66
2022/10/15 04:29:14;;;;;;;17.00;12.27;;;11.10;99.90;;;;;;5032770;28;20255;-66
2022/10/15 04:31:40;;;;;;;16.05;12.57;;;11.10;99.90;;;;;;5033417;28;20616;-66
2022/10/15 04:34:06;;;;;;;17.23;12.73;;;11.10;99.90;;;;;;5031928;28;20588;-66
2022/10/15 04:36:33;;;;;;;18.42;13.30;;;11.10;99.90;;;;;;5031717;28;20186;-66
2022/10/15 04:38:59;;;;;;;16.40;11.63;;;11.10;99.90;;;;;;5031724;28;20210;-66
2022/10/15 04:41:25;;;;;;;18.45;12.18;;;11.10;99.90;;;;;;5033249;28;20183;-66
2022/10/15 04:43:51;;;;;;;17.70;13.10;;;11.10;99.90;;;;;;5032747;28;20199;-66
2022/10/15 04:46:17;;;;;;;15.93;12.18;;;11.00;99.90;;;;;;5033180;28;20543;-66
2022/10/15 04:48:42;;;;;;;20.15;12.60;;;10.90;99.90;;;;;;5032819;28;20191;-66
2022/10/15 04:51:17;;;;;;;16.70;11.85;;;10.90;99.90;;;;;;5031653;28;20186;-66
2022/10/15 04:53:43;;;;;;;19.20;12.88;;;10.90;99.90;;;;;;5033159;28;20281;-66
2022/10/15 04:56:14;;;;;;;20.67;13.43;;;10.80;99.90;;;;;;5032840;28;20172;-66
2022/10/15 04:58:41;;;;;;;21.30;12.15;;;10.70;99.90;;;;;;5032734;28;20518;-66
2022/10/15 05:01:13;;;;;;;17.00;12.13;;;10.70;99.90;;;;;;5034722;28;20175;-66
2022/10/15 05:03:41;;;;;;;19.20;12.60;;;10.70;99.90;;;;;;5035157;28;20609;-66
2022/10/15 05:06:08;;;;;;;16.88;12.13;;;10.70;99.90;;;;;;5036713;28;20179;-66
2022/10/15 05:08:35;;;;;;;15.88;12.45;;;10.70;99.90;;;;;;5035166;28;20263;-66
2022/10/15 05:11:06;;;;;;;16.38;11.75;;;10.70;99.90;;;;;;5036216;28;20250;-66
2022/10/15 05:13:33;;;;;;;18.02;12.57;;;10.80;99.90;;;;;;5036105;28;20737;-66
2022/10/15 05:16:12;;;;;;;22.00;14.20;;;10.80;99.90;;;;;;5036556;28;20306;-66
2022/10/15 05:18:39;;;;;;;20.25;14.32;;;10.80;99.90;;;;;;5036183;28;20665;-66
2022/10/15 05:21:06;;;;;;;17.95;13.23;;;10.80;99.90;;;;;;5036118;28;20206;-66
2022/10/15 05:23:32;;;;;;;18.17;13.57;;;10.80;99.90;;;;;;5035115;28;20568;-66
2022/10/15 05:26:03;;;;;;;21.33;13.63;;;10.90;99.90;;;;;;5034867;28;20179;-66
2022/10/15 05:28:29;;;;;;;20.48;13.50;;;10.90;99.90;;;;;;5035896;28;20655;-66
2022/10/15 05:30:55;;;;;;;22.08;12.85;;;10.90;99.90;;;;;;5035975;28;20179;-66
2022/10/15 05:33:21;;;;;;;18.33;12.15;;;10.90;99.90;;;;;;5035819;28;20213;-66
2022/10/15 05:35:47;;;;;;;15.93;11.48;;;10.90;99.90;;;;;;5035802;28;20667;-66
2022/10/15 05:38:12;;;;;;;19.40;12.57;;;10.80;99.90;;;;;;5035916;28;20593;-66
2022/10/15 05:40:38;;;;;;;15.97;10.83;;;10.70;99.90;;;;;;5035868;28;20576;-66
2022/10/15 05:43:04;;;;;;;16.48;11.38;;;10.70;99.90;;;;;;5035646;28;20199;-66
2022/10/15 05:45:29;;;;;;;13.85;11.00;;;10.70;99.90;;;;;;5035583;28;20175;-66
2022/10/15 05:47:55;;;;;;;14.73;11.27;;;10.70;99.90;;;;;;5035717;28;20183;-66
2022/10/15 05:50:22;;;;;;;14.20;10.30;;;10.60;99.90;;;;;;5035875;28;20624;-66
2022/10/15 05:52:48;;;;;;;17.63;10.90;;;10.60;99.90;;;;;;5036282;28;20225;-62
2022/10/15 05:55:14;;;;;;;13.40;10.00;;;10.50;99.90;;;;;;5034480;28;20207;-68
2022/10/15 05:57:40;;;;;;;16.38;10.27;;;10.50;99.90;;;;;;5034165;28;20261;-68
2022/10/15 06:00:07;;;;;;;14.82;11.25;;;10.40;99.90;;;;;;5034020;28;20337;-68
2022/10/15 06:02:33;;;;;;;14.77;11.27;;;10.40;99.90;;;;;;5035439;28;20199;-68
2022/10/15 06:04:59;;;;;;;15.10;11.48;;;10.40;99.90;;;;;;5035334;28;20194;-68
2022/10/15 06:07:25;;;;;;;14.27;10.85;;;10.40;99.90;;;;;;5035562;28;20183;-71
2022/10/15 06:09:51;;;;;;;19.15;11.68;;;10.40;99.90;;;;;;5035288;28;20250;-68
2022/10/15 06:12:17;;;;;;;13.20;10.27;;;10.30;99.90;;;;;;5034920;28;20287;-68
2022/10/15 06:14:42;;;;;;;15.53;11.77;;;10.30;99.90;;;;;;5035164;28;20219;-68
2022/10/15 06:17:08;;;;;;;17.53;12.20;;;10.40;99.90;;;;;;5033822;28;20662;-68
2022/10/15 06:19:34;;;;;;;15.13;11.87;;;10.40;99.90;;;;;;5035047;28;20246;-68
2022/10/15 06:22:00;;;;;;;15.73;11.40;;;10.40;99.90;;;;;;5035499;28;20168;-68
2022/10/15 06:24:26;;;;;;;17.63;12.10;;;10.40;99.90;;;;;;5034995;28;20263;-68
2022/10/15 06:26:51;;;;;;;18.23;12.83;;;10.40;99.90;;;;;;5033630;28;20697;-68
2022/10/15 06:29:17;;;;;;;16.63;12.27;;;10.40;99.90;;;;;;5034665;28;20191;-68
2022/10/15 06:31:43;;;;;;;16.33;11.93;;;10.50;99.90;;;;;;5033524;28;20624;-68
2022/10/15 06:34:09;;;;;;;16.83;11.77;;;10.50;99.90;;;;;;5034763;28;20203;-67
2022/10/15 06:36:34;;;;;;;18.83;13.10;;;10.60;99.90;;;;;;5034992;28;20171;-68
2022/10/15 06:39:00;;;;;;;16.05;11.80;;;10.60;99.90;;;;;;5034999;28;20230;-68
2022/10/15 06:41:26;;;;;;;16.58;12.45;;;10.70;99.90;;;;;;5034606;28;20175;-69
2022/10/15 06:43:52;;;;;;;17.88;12.32;;;10.70;99.90;;;;;;5033135;28;20222;-68
2022/10/15 06:46:17;;;;;;;21.38;14.68;;;10.80;99.90;;;;;;5033570;28;20229;-69
2022/10/15 06:48:43;;;;;;;18.40;13.40;;;10.80;99.90;;;;;;5034630;28;20187;-69
2022/10/15 06:51:09;;;;;;;15.45;11.77;;;10.80;99.90;;;;;;5035060;28;20167;-68
2022/10/15 06:53:35;;;;;;;17.27;11.82;;;10.80;99.90;;;;;;5033052;28;20206;-69
2022/10/15 06:56:02;;;;;;;20.20;13.10;;;10.80;99.90;;;;;;5033227;28;20266;-68
2022/10/15 06:58:29;;;;;;;19.73;12.63;;;10.90;99.90;;;;;;5034128;28;20520;-68
2022/10/15 07:01:05;;;;;;;18.27;11.68;;;10.90;99.90;;;;;;5034355;28;20175;-68
2022/10/15 07:03:31;;;;;;;17.42;12.18;;;10.90;99.90;;;;;;5034221;28;20259;-68
2022/10/15 07:06:05;;;;;;;23.97;14.07;;;11.00;99.90;;;;;;5033002;28;20697;-68
2022/10/15 07:08:31;;;;;;;19.63;13.38;;;11.10;99.90;;;;;;5033121;28;20272;-68
2022/10/15 07:10:59;;;;;;;23.88;17.63;;;11.10;99.90;;;;;;5032898;28;20172;-68
2022/10/15 07:13:25;;;;;;;20.10;15.95;;;11.20;99.90;;;;;;5033938;28;20191;-68
2022/10/15 07:15:54;;;;;;;17.45;12.48;;;11.20;99.90;;;;;;5034412;28;20203;-68
2022/10/15 07:18:20;;;;;;;14.60;11.73;;;11.30;99.90;;;;;;5033866;28;20171;-68
2022/10/15 07:20:46;;;;;;;14.50;10.40;;;11.30;99.90;;;;;;5032592;28;20182;-68
2022/10/15 07:23:12;;;;;;;13.05;10.32;;;11.50;99.90;;;;;;5032664;28;20207;-76
2022/10/15 07:25:38;;;;;;;13.68;10.55;;;11.50;99.90;;;;;;5033912;28;20280;-76
2022/10/15 07:28:04;;;;;;;13.30;10.80;;;11.60;99.90;;;;;;5033874;28;20673;-68
2022/10/15 07:30:30;;;;;;;17.67;11.45;;;11.70;99.90;;;;;;5033602;28;20262;-68
2022/10/15 07:32:58;;;;;;;20.25;12.52;;;11.90;99.90;;;;;;5033077;28;20202;-62
2022/10/15 07:35:25;;;;;;;16.02;11.20;;;12.10;99.90;;;;;;5033621;28;20206;-64
2022/10/15 07:37:51;;;;;;;20.25;13.27;;;12.30;99.90;;;;;;5033889;28;20564;-64
2022/10/15 07:40:17;;;;;;;28.58;16.92;;;12.50;99.90;;;;;;5033767;28;20171;-64
2022/10/15 07:42:43;;;;;;;33.67;20.35;;;12.80;99.90;;;;;;5033967;28;20191;-64
2022/10/15 07:45:09;;;;;;;45.00;25.25;;;13.00;99.90;;;;;;5032165;28;20266;-63
2022/10/15 07:47:35;;;;;;;55.85;30.00;;;13.20;99.90;;;;;;5033729;28;20179;-62
2022/10/15 07:50:01;;;;;;;59.45;32.50;;;13.50;99.90;;;;;;5033597;28;20183;-62
2022/10/15 07:52:27;;;;;;;54.10;30.10;;;13.70;99.90;;;;;;5033624;28;20561;-64
2022/10/15 07:54:52;;;;;;;54.17;28.88;;;13.90;99.90;;;;;;5033320;28;20230;-62
2022/10/15 07:57:18;;;;;;;57.30;32.25;;;14.00;99.90;;;;;;5033396;28;20191;-62
2022/10/15 07:59:44;;;;;;;54.03;28.42;;;14.10;99.90;;;;;;5033554;28;20165;-62
2022/10/15 08:02:17;;;;;;;50.83;29.35;;;14.20;99.90;;;;;;5034287;28;20531;-64
2022/10/15 08:04:43;;;;;;;51.30;27.77;;;14.40;99.90;;;;;;5033573;28;20588;-63
2022/10/15 08:07:09;;;;;;;53.97;28.55;;;14.50;99.90;;;;;;5033096;28;20183;-64
2022/10/15 08:09:35;;;;;;;44.85;27.45;;;14.60;99.90;;;;;;5033484;28;20190;-66
2022/10/15 08:12:00;;;;;;;42.85;25.00;;;14.80;99.90;;;;;;5034284;28;20237;-64
2022/10/15 08:14:26;;;;;;;53.75;31.90;;;14.70;99.90;;;;;;5034110;28;20274;-63
2022/10/15 08:16:52;;;;;;;48.85;32.05;;;14.60;99.90;;;;;;5033232;28;20636;-65
2022/10/15 08:19:19;;;;;;;44.85;26.55;;;14.50;99.90;;;;;;5033221;28;20542;-63
2022/10/15 08:21:44;;;;;;;47.67;29.35;;;14.40;99.90;;;;;;5033352;28;20182;-64
2022/10/15 08:24:10;;;;;;;56.33;34.30;;;14.30;99.90;;;;;;5033478;28;20183;-62
2022/10/15 08:26:36;;;;;;;49.67;29.30;;;14.20;99.90;;;;;;5033646;28;20187;-63
2022/10/15 08:29:02;;;;;;;44.50;28.13;;;14.20;99.90;;;;;;5033615;28;20195;-66
2022/10/15 08:31:28;;;;;;;40.05;24.83;;;14.10;99.90;;;;;;5033084;28;20185;-66
2022/10/15 08:33:54;;;;;;;39.30;24.27;;;14.20;99.90;;;;;;5032997;28;20187;-66
2022/10/15 08:36:19;;;;;;;40.75;24.67;;;14.20;99.90;;;;;;5035697;28;20179;-66
2022/10/15 08:38:45;;;;;;;38.08;23.38;;;14.30;99.90;;;;;;5037045;28;20176;-66
2022/10/15 08:41:54;;;;;;;37.97;22.75;;;14.40;99.90;;;;;;5037453;28;20175;-66
2022/10/15 08:44:26;;;;;;;35.10;24.23;;;14.50;99.90;;;;;;5036763;28;20175;-66
2022/10/15 08:47:16;;;;;;;36.05;21.70;;;14.50;99.90;;;;;;5036724;28;20164;-66
2022/10/15 08:49:52;;;;;;;32.38;21.00;;;14.70;99.90;;;;;;5033742;28;20191;-66
2022/10/15 08:52:35;;;;;;;29.75;19.90;;;14.80;99.90;;;;;;5035484;28;20225;-66
2022/10/15 08:55:02;;;;;;;31.73;20.88;;;15.00;99.90;;;;;;5037510;28;20606;-66
2022/10/15 08:57:33;;;;;;;28.77;19.67;;;15.00;99.90;;;;;;5037583;28;20190;-66
2022/10/15 09:00:38;;;;;;;28.05;18.88;;;15.00;99.90;;;;;;5035853;28;20175;-66
2022/10/15 09:03:41;;;;;;;26.80;17.35;;;15.10;99.90;;;;;;5033046;28;20213;-66
2022/10/15 09:06:36;;;;;;;25.25;17.85;;;15.20;99.90;;;;;;5035851;28;20179;-68
2022/10/15 09:09:24;;;;;;;21.33;15.95;;;15.20;99.90;;;;;;5036801;28;20176;-68
2022/10/15 09:12:08;;;;;;;23.38;16.13;;;15.10;99.90;;;;;;5035221;28;20186;-67
2022/10/15 09:14:40;;;;;;;19.25;13.82;;;15.00;99.90;;;;;;5036270;28;20213;-68
2022/10/15 09:17:20;;;;;;;18.75;13.07;;;15.00;99.90;;;;;;5036758;28;20160;-67
2022/10/15 09:20:01;;;;;;;17.50;12.82;;;15.10;99.90;;;;;;5035164;28;20588;-67
2022/10/15 09:22:30;;;;;;;15.73;12.18;;;15.30;99.90;;;;;;5036589;28;20195;-67
2022/10/15 09:24:56;;;;;;;16.05;11.32;;;15.30;99.90;;;;;;5036224;28;20182;-68
2022/10/15 09:27:24;;;;;;;16.70;12.00;;;15.20;99.90;;;;;;5034658;28;20194;-68
2022/10/15 09:30:05;;;;;;;16.23;12.25;;;15.20;99.90;;;;;;5036053;28;20637;-67
2022/10/15 09:32:43;;;;;;;12.32;9.20;;;15.10;99.90;;;;;;5034834;28;20230;-67
2022/10/15 09:35:24;;;;;;;12.73;8.75;;;15.00;99.90;;;;;;5036100;28;20189;-67
2022/10/15 09:38:14;;;;;;;11.93;9.20;;;15.10;99.90;;;;;;5034778;28;20226;-67
2022/10/15 09:41:15;;;;;;;10.90;8.43;;;15.20;99.90;;;;;;5034629;28;20179;-68
2022/10/15 09:43:44;;;;;;;9.32;7.30;;;15.50;99.90;;;;;;5035626;28;20187;-67
2022/10/15 09:46:10;;;;;;;8.70;7.35;;;15.70;99.90;;;;;;5035729;28;20171;-67
2022/10/15 09:48:45;;;;;;;10.05;6.93;;;15.80;99.90;;;;;;5034660;28;20245;-67
2022/10/15 09:51:28;;;;;;;7.85;5.90;;;15.80;99.90;;;;;;5034381;28;20182;-67
2022/10/15 09:54:13;;;;;;;8.38;5.65;;;15.90;99.90;;;;;;5035470;28;20201;-67
2022/10/15 09:56:48;;;;;;;11.68;5.28;;;15.90;99.90;;;;;;5035759;28;20171;-67
2022/10/15 09:59:17;;;;;;;5.45;4.35;;;16.00;99.90;;;;;;5035827;28;20250;-67
2022/10/15 10:01:56;;;;;;;3.70;3.40;;;16.20;99.90;;;;;;5034321;28;20179;-67
2022/10/15 10:04:27;;;;;;;3.40;3.10;;;16.30;99.90;;;;;;5035660;28;20178;-67
2022/10/15 10:06:58;;;;;;;3.58;3.28;;;16.40;99.90;;;;;;5035676;28;20156;-67
2022/10/15 10:09:31;;;;;;;3.33;3.03;;;16.60;99.90;;;;;;5035502;28;20175;-67
2022/10/15 10:12:06;;;;;;;6.07;2.67;;;16.70;99.90;;;;;;5035261;28;20274;-67
2022/10/15 10:14:33;;;;;;;7.72;2.92;;;16.80;99.90;;;;;;5035455;28;20543;-67
2022/10/15 10:17:26;;;;;;;2.60;2.40;;;16.90;99.90;;;;;;5035673;28;20524;-68
2022/10/15 10:20:18;;;;;;;2.70;2.50;;;16.90;99.90;;;;;;5035308;28;20187;-67
2022/10/15 10:22:54;;;;;;;2.30;2.20;;;16.90;99.90;;;;;;5035070;28;20210;-67
2022/10/15 10:25:34;;;;;;;3.00;2.30;;;16.90;99.90;;;;;;5033881;28;20179;-67
2022/10/15 10:28:16;;;;;;;2.35;2.22;;;16.80;99.90;;;;;;5035258;28;20197;-68
2022/10/15 10:30:57;;;;;;;2.45;2.00;;;16.80;99.90;;;;;;5035166;28;20181;-68
2022/10/15 10:33:39;;;;;;;2.30;2.20;;;16.70;99.90;;;;;;5034951;28;20302;-67
2022/10/15 10:36:07;;;;;;;2.20;2.10;;;16.70;99.90;;;;;;5034735;28;20198;-67
2022/10/15 10:38:35;;;;;;;2.35;2.17;;;16.60;99.90;;;;;;5035124;28;20156;-68
2022/10/15 10:41:09;;;;;;;2.30;2.20;;;16.50;99.90;;;;;;5034823;28;20241;-67
2022/10/15 10:43:37;;;;;;;2.10;2.00;;;16.40;99.90;;;;;;5034641;28;20218;-64
2022/10/15 10:46:13;;;;;;;1.98;1.88;;;16.40;99.90;;;;;;5034653;28;20557;-68
2022/10/15 10:48:48;;;;;;;2.20;2.10;;;16.30;99.90;;;;;;5034500;28;20183;-68
2022/10/15 10:51:25;;;;;;;2.33;1.90;;;16.30;99.90;;;;;;5033416;28;20171;-68
2022/10/15 10:54:05;;;;;;;2.40;2.25;;;16.30;99.90;;;;;;5034926;28;20210;-68
2022/10/15 10:56:37;;;;;;;3.50;1.90;;;16.40;99.90;;;;;;5033312;28;20647;-68
2022/10/15 10:59:36;;;;;;;2.22;2.13;;;16.50;99.90;;;;;;5034150;28;20266;-67
2022/10/15 11:02:05;;;;;;;2.00;1.90;;;16.50;99.90;;;;;;5033977;28;20187;-67
2022/10/15 11:04:33;;;;;;;2.00;1.90;;;16.60;99.90;;;;;;5033191;28;20186;-68
2022/10/15 11:07:02;;;;;;;1.75;1.70;;;16.80;99.90;;;;;;5034337;28;20626;-68
2022/10/15 11:09:37;;;;;;;2.75;2.10;;;16.90;99.90;;;;;;5034720;28;20175;-68
2022/10/15 11:12:09;;;;;;;1.90;1.80;;;17.00;99.90;;;;;;5034475;28;20167;-68
2022/10/15 11:15:08;;;;;;;1.88;1.80;;;17.10;99.90;;;;;;5032838;28;20195;-68
2022/10/15 11:17:46;;;;;;;4.05;1.80;;;17.20;99.90;;;;;;5034031;28;20262;-67
2022/10/15 11:20:53;;;;;;;2.00;1.90;;;17.10;99.90;;;;;;5034225;28;20296;-67
2022/10/15 11:23:27;;;;;;;2.00;1.90;;;17.10;99.90;;;;;;5033335;28;20575;-67
2022/10/15 11:26:08;;;;;;;2.05;1.95;;;17.10;99.90;;;;;;5034290;28;20484;-68
2022/10/15 11:28:49;;;;;;;2.47;1.80;;;17.10;99.90;;;;;;5032653;28;20195;-68
2022/10/15 11:31:39;;;;;;;2.00;1.90;;;17.00;99.90;;;;;;5033848;28;20163;-68
2022/10/15 11:34:17;;;;;;;1.90;1.80;;;16.70;99.90;;;;;;5032519;28;20206;-68
2022/10/15 11:36:54;;;;;;;2.00;1.90;;;16.60;99.90;;;;;;5032879;28;20518;-68
2022/10/15 11:40:04;;;;;;;1.90;1.80;;;16.60;99.90;;;;;;5033904;28;20209;-67
2022/10/15 11:42:34;;;;;;;2.22;1.73;;;16.60;99.90;;;;;;5021100;28;20203;-67
2022/10/15 11:45:27;;;;;;;2.08;1.90;;;16.70;99.90;;;;;;5033506;28;20163;-68
2022/10/15 11:48:01;;;;;;;1.90;1.80;;;16.80;99.90;;;;;;5032586;28;20182;-68
2022/10/15 11:50:31;;;;;;;1.88;1.77;;;16.80;99.90;;;;;;5032485;28;20171;-68
2022/10/15 11:53:00;;;;;;;2.03;1.92;;;16.80;99.90;;;;;;5033742;28;20194;-67
2022/10/15 11:55:43;;;;;;;1.95;1.85;;;16.90;99.90;;;;;;5032170;28;20619;-68
2022/10/15 11:58:27;;;;;;;1.98;1.88;;;17.00;99.90;;;;;;5033492;28;20187;-67
2022/10/15 12:01:00;;;;;;;1.70;1.70;;;17.20;99.90;;;;;;5032069;28;20244;-67
2022/10/15 12:03:30;;;;;;;1.98;1.88;;;17.30;99.90;;;;;;5033240;28;20187;-68
2022/10/15 12:06:09;;;;;;;1.83;1.70;;;17.40;99.90;;;;;;5033646;28;20636;-67
2022/10/15 12:08:37;;;;;;;4.20;1.80;;;17.50;99.90;;;;;;5032568;28;20175;-67
2022/10/15 12:11:10;;;;;;;1.98;1.88;;;17.50;99.90;;;;;;5032793;28;20171;-67
2022/10/15 12:14:06;;;;;;;3.47;2.05;;;17.70;99.90;;;;;;5032010;28;20575;-68
2022/10/15 12:16:40;;;;;;;3.58;1.63;;;17.70;99.90;;;;;;5032299;28;20263;-67
2022/10/15 12:19:18;;;;;;;1.80;1.70;;;17.70;99.90;;;;;;5033302;28;20202;-67
2022/10/15 12:21:53;;;;;;;1.70;1.70;;;17.70;99.90;;;;;;5031927;28;20603;-66
2022/10/15 12:24:37;;;;;;;1.90;1.80;;;17.80;99.90;;;;;;5033252;28;20174;-67
2022/10/15 12:27:18;;;;;;;2.20;1.70;;;17.90;99.90;;;;;;5033123;28;20175;-67
2022/10/15 12:30:04;;;;;;;4.10;1.70;;;17.90;99.90;;;;;;5033070;28;20707;-68
2022/10/15 12:32:42;;;;;;;1.65;1.55;;;18.10;99.90;;;;;;5021632;28;20689;-68
2022/10/15 12:35:13;;;;;;;1.55;1.55;;;18.10;99.90;;;;;;5033461;28;20237;-67
2022/10/15 12:37:41;;;;;;;2.20;2.10;;;18.10;99.90;;;;;;5033084;28;20206;-68
2022/10/15 12:40:29;;;;;;;2.58;1.83;;;18.10;99.90;;;;;;5031866;28;20183;-67
2022/10/15 12:43:10;;;;;;;1.80;1.70;;;18.10;99.90;;;;;;5033775;28;20199;-67
2022/10/15 12:45:58;;;;;;;1.90;1.80;;;18.20;99.90;;;;;;5033111;28;20270;-67
2022/10/15 12:48:38;;;;;;;2.13;1.92;;;18.20;99.90;;;;;;5033119;28;20270;-68
2022/10/15 12:51:22;;;;;;;1.70;1.60;;;18.20;99.90;;;;;;5033326;28;20205;-67
2022/10/15 12:53:50;;;;;;;2.10;1.70;;;18.20;99.90;;;;;;5032866;28;20199;-68